sensor_id;sensor_type;location;lat;lon;timestamp;P1;durP1;ratioP1;P2;durP2;ratioP2
32329;SDS011;18807;52.434;13.238;2023-04-06T00:00:19;6.82;;;4.78;;
32329;SDS011;18807;52.434;13.238;2023-04-06T00:07:55;8.38;;;5.15;;
32329;SDS011;18807;52.434;13.238;2023-04-06T00:15:29;5.93;;;4.18;;
32329;SDS011;18807;52.434;13.238;2023-04-06T00:23:04;7.15;;;4.68;;
32329;SDS011;18807;52.434;13.238;2023-04-06T00:30:39;7.65;;;5.20;;
32329;SDS011;18807;52.434;13.238;2023-04-06T00:38:33;7.72;;;5.18;;
32329;SDS011;18807;52.434;13.238;2023-04-06T00:46:07;7.47;;;4.70;;
32329;SDS011;18807;52.434;13.238;2023-04-06T00:53:43;6.20;;;4.90;;
32329;SDS011;18807;52.434;13.238;2023-04-06T01:01:17;6.78;;;4.90;;
32329;SDS011;18807;52.434;13.238;2023-04-06T01:08:52;9.07;;;5.15;;
32329;SDS011;18807;52.434;13.238;2023-04-06T01:16:44;7.97;;;4.45;;
32329;SDS011;18807;52.434;13.238;2023-04-06T01:24:38;8.13;;;4.82;;
32329;SDS011;18807;52.434;13.238;2023-04-06T01:32:12;7.70;;;4.40;;
32329;SDS011;18807;52.434;13.238;2023-04-06T01:39:48;7.03;;;4.93;;
32329;SDS011;18807;52.434;13.238;2023-04-06T01:47:22;6.70;;;4.70;;
32329;SDS011;18807;52.434;13.238;2023-04-06T01:54:58;7.18;;;4.88;;
32329;SDS011;18807;52.434;13.238;2023-04-06T02:02:32;6.35;;;4.43;;
32329;SDS011;18807;52.434;13.238;2023-04-06T02:10:10;8.10;;;5.30;;
32329;SDS011;18807;52.434;13.238;2023-04-06T02:17:45;7.88;;;5.22;;
32329;SDS011;18807;52.434;13.238;2023-04-06T02:25:21;6.45;;;4.47;;
32329;SDS011;18807;52.434;13.238;2023-04-06T02:32:55;5.18;;;4.10;;
32329;SDS011;18807;52.434;13.238;2023-04-06T02:40:31;6.13;;;4.53;;
32329;SDS011;18807;52.434;13.238;2023-04-06T02:48:05;7.80;;;5.13;;
32329;SDS011;18807;52.434;13.238;2023-04-06T02:55:40;5.88;;;4.65;;
32329;SDS011;18807;52.434;13.238;2023-04-06T03:03:15;6.25;;;4.68;;
32329;SDS011;18807;52.434;13.238;2023-04-06T03:10:50;8.85;;;5.93;;
32329;SDS011;18807;52.434;13.238;2023-04-06T03:18:24;7.75;;;4.78;;
32329;SDS011;18807;52.434;13.238;2023-04-06T03:26:00;7.53;;;4.55;;
32329;SDS011;18807;52.434;13.238;2023-04-06T03:33:35;6.90;;;5.05;;
32329;SDS011;18807;52.434;13.238;2023-04-06T03:41:10;5.82;;;4.90;;
32329;SDS011;18807;52.434;13.238;2023-04-06T03:48:45;10.23;;;5.53;;
32329;SDS011;18807;52.434;13.238;2023-04-06T03:56:20;7.72;;;5.63;;
32329;SDS011;18807;52.434;13.238;2023-04-06T04:03:54;9.93;;;5.28;;
32329;SDS011;18807;52.434;13.238;2023-04-06T04:11:30;9.38;;;5.55;;
32329;SDS011;18807;52.434;13.238;2023-04-06T04:19:04;7.70;;;5.60;;
32329;SDS011;18807;52.434;13.238;2023-04-06T04:26:40;7.07;;;5.10;;
32329;SDS011;18807;52.434;13.238;2023-04-06T04:34:14;10.77;;;6.60;;
32329;SDS011;18807;52.434;13.238;2023-04-06T04:41:50;9.35;;;6.45;;
32329;SDS011;18807;52.434;13.238;2023-04-06T04:49:24;11.35;;;6.65;;
32329;SDS011;18807;52.434;13.238;2023-04-06T04:57:00;8.02;;;5.90;;
32329;SDS011;18807;52.434;13.238;2023-04-06T05:04:35;8.43;;;5.88;;
32329;SDS011;18807;52.434;13.238;2023-04-06T05:12:10;7.55;;;5.82;;
32329;SDS011;18807;52.434;13.238;2023-04-06T05:19:44;9.75;;;5.72;;
32329;SDS011;18807;52.434;13.238;2023-04-06T05:42:34;10.45;;;7.22;;
32329;SDS011;18807;52.434;13.238;2023-04-06T05:50:10;17.27;;;8.40;;
32329;SDS011;18807;52.434;13.238;2023-04-06T05:58:03;13.70;;;10.35;;
32329;SDS011;18807;52.434;13.238;2023-04-06T06:05:37;21.50;;;13.35;;
32329;SDS011;18807;52.434;13.238;2023-04-06T06:13:13;20.27;;;13.25;;
32329;SDS011;18807;52.434;13.238;2023-04-06T06:20:47;15.27;;;11.43;;
32329;SDS011;18807;52.434;13.238;2023-04-06T06:28:22;15.60;;;10.70;;
32329;SDS011;18807;52.434;13.238;2023-04-06T06:36:14;11.60;;;8.90;;
32329;SDS011;18807;52.434;13.238;2023-04-06T06:43:50;14.13;;;9.25;;
32329;SDS011;18807;52.434;13.238;2023-04-06T06:51:24;15.68;;;9.15;;
32329;SDS011;18807;52.434;13.238;2023-04-06T06:58:59;10.27;;;7.35;;
32329;SDS011;18807;52.434;13.238;2023-04-06T07:06:34;12.88;;;7.10;;
32329;SDS011;18807;52.434;13.238;2023-04-06T07:14:10;9.05;;;6.63;;
32329;SDS011;18807;52.434;13.238;2023-04-06T07:21:45;12.63;;;7.75;;
32329;SDS011;18807;52.434;13.238;2023-04-06T07:29:20;12.18;;;7.28;;
32329;SDS011;18807;52.434;13.238;2023-04-06T07:36:55;11.82;;;6.93;;
32329;SDS011;18807;52.434;13.238;2023-04-06T07:44:49;12.38;;;5.97;;
32329;SDS011;18807;52.434;13.238;2023-04-06T07:52:23;9.93;;;6.40;;
32329;SDS011;18807;52.434;13.238;2023-04-06T07:59:59;17.23;;;7.70;;
32329;SDS011;18807;52.434;13.238;2023-04-06T08:07:33;8.73;;;6.25;;
32329;SDS011;18807;52.434;13.238;2023-04-06T08:15:10;10.15;;;7.45;;
32329;SDS011;18807;52.434;13.238;2023-04-06T08:22:44;5.88;;;3.97;;
32329;SDS011;18807;52.434;13.238;2023-04-06T08:30:19;6.37;;;3.80;;
32329;SDS011;18807;52.434;13.238;2023-04-06T08:37:53;5.13;;;3.42;;
32329;SDS011;18807;52.434;13.238;2023-04-06T08:45:29;6.75;;;3.80;;
32329;SDS011;18807;52.434;13.238;2023-04-06T08:53:03;5.13;;;2.58;;
32329;SDS011;18807;52.434;13.238;2023-04-06T09:00:41;4.95;;;2.42;;
32329;SDS011;18807;52.434;13.238;2023-04-06T09:08:16;8.73;;;2.10;;
32329;SDS011;18807;52.434;13.238;2023-04-06T09:16:00;5.73;;;1.93;;
32329;SDS011;18807;52.434;13.238;2023-04-06T09:23:35;4.10;;;2.50;;
32329;SDS011;18807;52.434;13.238;2023-04-06T09:31:11;3.97;;;1.73;;
32329;SDS011;18807;52.434;13.238;2023-04-06T09:38:52;5.20;;;2.05;;
32329;SDS011;18807;52.434;13.238;2023-04-06T09:46:31;4.55;;;1.75;;
32329;SDS011;18807;52.434;13.238;2023-04-06T09:54:22;2.50;;;2.00;;
32329;SDS011;18807;52.434;13.238;2023-04-06T10:02:01;8.60;;;2.33;;
32329;SDS011;18807;52.434;13.238;2023-04-06T10:09:38;2.83;;;2.17;;
32329;SDS011;18807;52.434;13.238;2023-04-06T10:17:14;3.00;;;2.63;;
32329;SDS011;18807;52.434;13.238;2023-04-06T10:24:49;2.20;;;2.00;;
32329;SDS011;18807;52.434;13.238;2023-04-06T10:32:32;3.57;;;2.83;;
32329;SDS011;18807;52.434;13.238;2023-04-06T10:40:11;4.13;;;3.03;;
32329;SDS011;18807;52.434;13.238;2023-04-06T10:47:53;5.15;;;2.97;;
32329;SDS011;18807;52.434;13.238;2023-04-06T10:55:29;4.20;;;2.83;;
32329;SDS011;18807;52.434;13.238;2023-04-06T11:03:06;5.78;;;3.17;;
32329;SDS011;18807;52.434;13.238;2023-04-06T11:10:41;4.03;;;2.85;;
32329;SDS011;18807;52.434;13.238;2023-04-06T11:18:18;4.53;;;3.10;;
32329;SDS011;18807;52.434;13.238;2023-04-06T11:25:53;4.45;;;3.28;;
32329;SDS011;18807;52.434;13.238;2023-04-06T11:33:29;3.67;;;2.60;;
32329;SDS011;18807;52.434;13.238;2023-04-06T11:41:08;5.32;;;3.20;;
32329;SDS011;18807;52.434;13.238;2023-04-06T11:48:45;5.20;;;3.47;;
32329;SDS011;18807;52.434;13.238;2023-04-06T11:56:27;5.70;;;2.63;;
32329;SDS011;18807;52.434;13.238;2023-04-06T12:04:04;4.05;;;2.97;;
32329;SDS011;18807;52.434;13.238;2023-04-06T12:11:39;4.18;;;2.83;;
32329;SDS011;18807;52.434;13.238;2023-04-06T12:19:15;3.65;;;3.13;;
32329;SDS011;18807;52.434;13.238;2023-04-06T12:26:49;4.95;;;3.40;;
32329;SDS011;18807;52.434;13.238;2023-04-06T12:34:35;9.63;;;2.77;;
32329;SDS011;18807;52.434;13.238;2023-04-06T12:42:09;3.33;;;2.90;;
32329;SDS011;18807;52.434;13.238;2023-04-06T12:49:46;4.10;;;3.20;;
32329;SDS011;18807;52.434;13.238;2023-04-06T12:57:24;5.60;;;3.25;;
32329;SDS011;18807;52.434;13.238;2023-04-06T13:05:00;4.35;;;3.28;;
32329;SDS011;18807;52.434;13.238;2023-04-06T13:12:34;6.28;;;3.70;;
32329;SDS011;18807;52.434;13.238;2023-04-06T13:20:10;3.00;;;2.37;;
32329;SDS011;18807;52.434;13.238;2023-04-06T13:27:44;4.75;;;2.72;;
32329;SDS011;18807;52.434;13.238;2023-04-06T13:35:22;5.65;;;3.25;;
32329;SDS011;18807;52.434;13.238;2023-04-06T13:42:56;3.33;;;2.60;;
32329;SDS011;18807;52.434;13.238;2023-04-06T13:50:31;3.20;;;2.88;;
32329;SDS011;18807;52.434;13.238;2023-04-06T13:58:06;6.82;;;2.80;;
32329;SDS011;18807;52.434;13.238;2023-04-06T14:05:41;6.28;;;3.50;;
32329;SDS011;18807;52.434;13.238;2023-04-06T14:13:15;4.55;;;2.83;;
32329;SDS011;18807;52.434;13.238;2023-04-06T14:20:57;3.73;;;2.73;;
32329;SDS011;18807;52.434;13.238;2023-04-06T14:28:33;4.80;;;3.47;;
32329;SDS011;18807;52.434;13.238;2023-04-06T14:36:09;3.50;;;2.65;;
32329;SDS011;18807;52.434;13.238;2023-04-06T14:43:43;4.63;;;3.35;;
32329;SDS011;18807;52.434;13.238;2023-04-06T14:51:19;4.87;;;2.97;;
32329;SDS011;18807;52.434;13.238;2023-04-06T14:58:53;4.13;;;3.10;;
32329;SDS011;18807;52.434;13.238;2023-04-06T15:06:30;4.00;;;3.03;;
32329;SDS011;18807;52.434;13.238;2023-04-06T15:14:05;3.40;;;2.95;;
32329;SDS011;18807;52.434;13.238;2023-04-06T15:21:41;6.50;;;3.35;;
32329;SDS011;18807;52.434;13.238;2023-04-06T15:29:14;3.92;;;2.85;;
32329;SDS011;18807;52.434;13.238;2023-04-06T15:36:50;4.68;;;2.80;;
32329;SDS011;18807;52.434;13.238;2023-04-06T15:44:25;3.67;;;3.38;;
32329;SDS011;18807;52.434;13.238;2023-04-06T15:52:00;4.90;;;2.95;;
32329;SDS011;18807;52.434;13.238;2023-04-06T15:59:34;7.68;;;3.25;;
32329;SDS011;18807;52.434;13.238;2023-04-06T16:07:09;5.40;;;3.42;;
32329;SDS011;18807;52.434;13.238;2023-04-06T16:14:43;5.57;;;3.35;;
32329;SDS011;18807;52.434;13.238;2023-04-06T16:22:19;3.83;;;3.17;;
32329;SDS011;18807;52.434;13.238;2023-04-06T16:29:53;5.32;;;3.22;;
32329;SDS011;18807;52.434;13.238;2023-04-06T16:37:28;4.45;;;3.30;;
32329;SDS011;18807;52.434;13.238;2023-04-06T16:45:04;4.10;;;3.38;;
32329;SDS011;18807;52.434;13.238;2023-04-06T16:52:40;4.35;;;2.88;;
32329;SDS011;18807;52.434;13.238;2023-04-06T17:00:14;4.68;;;2.90;;
32329;SDS011;18807;52.434;13.238;2023-04-06T17:15:24;4.03;;;2.50;;
32329;SDS011;18807;52.434;13.238;2023-04-06T17:23:01;3.17;;;2.28;;
32329;SDS011;18807;52.434;13.238;2023-04-06T17:30:35;3.83;;;2.42;;
32329;SDS011;18807;52.434;13.238;2023-04-06T17:38:11;2.78;;;2.13;;
32329;SDS011;18807;52.434;13.238;2023-04-06T17:45:47;2.90;;;2.08;;
32329;SDS011;18807;52.434;13.238;2023-04-06T17:53:22;4.32;;;2.17;;
32329;SDS011;18807;52.434;13.238;2023-04-06T18:00:56;3.33;;;2.30;;
32329;SDS011;18807;52.434;13.238;2023-04-06T18:08:32;4.15;;;2.03;;
32329;SDS011;18807;52.434;13.238;2023-04-06T18:16:05;3.58;;;2.22;;
32329;SDS011;18807;52.434;13.238;2023-04-06T18:23:41;3.60;;;2.37;;
32329;SDS011;18807;52.434;13.238;2023-04-06T18:31:15;5.68;;;2.10;;
32329;SDS011;18807;52.434;13.238;2023-04-06T18:38:51;5.72;;;2.30;;
32329;SDS011;18807;52.434;13.238;2023-04-06T18:46:42;4.40;;;2.67;;
32329;SDS011;18807;52.434;13.238;2023-04-06T19:01:52;5.67;;;2.77;;
32329;SDS011;18807;52.434;13.238;2023-04-06T19:09:29;5.82;;;2.90;;
32329;SDS011;18807;52.434;13.238;2023-04-06T19:17:03;5.88;;;3.22;;
32329;SDS011;18807;52.434;13.238;2023-04-06T19:24:38;5.63;;;3.53;;
32329;SDS011;18807;52.434;13.238;2023-04-06T19:32:13;5.85;;;3.42;;
32329;SDS011;18807;52.434;13.238;2023-04-06T19:39:50;7.72;;;4.03;;
32329;SDS011;18807;52.434;13.238;2023-04-06T19:47:24;8.65;;;4.30;;
32329;SDS011;18807;52.434;13.238;2023-04-06T19:54:59;5.80;;;3.63;;
32329;SDS011;18807;52.434;13.238;2023-04-06T20:02:33;6.18;;;4.30;;
32329;SDS011;18807;52.434;13.238;2023-04-06T20:10:09;15.27;;;4.60;;
32329;SDS011;18807;52.434;13.238;2023-04-06T20:17:43;5.47;;;3.85;;
32329;SDS011;18807;52.434;13.238;2023-04-06T20:25:18;6.77;;;4.27;;
32329;SDS011;18807;52.434;13.238;2023-04-06T20:32:53;7.30;;;4.40;;
32329;SDS011;18807;52.434;13.238;2023-04-06T20:40:28;5.07;;;4.00;;
32329;SDS011;18807;52.434;13.238;2023-04-06T20:48:02;6.72;;;4.18;;
32329;SDS011;18807;52.434;13.238;2023-04-06T20:55:39;7.87;;;4.30;;
32329;SDS011;18807;52.434;13.238;2023-04-06T21:03:31;4.75;;;3.80;;
32329;SDS011;18807;52.434;13.238;2023-04-06T21:11:07;6.60;;;4.03;;
32329;SDS011;18807;52.434;13.238;2023-04-06T21:18:41;7.70;;;4.35;;
32329;SDS011;18807;52.434;13.238;2023-04-06T21:26:17;7.18;;;4.75;;
32329;SDS011;18807;52.434;13.238;2023-04-06T21:33:51;7.90;;;5.28;;
32329;SDS011;18807;52.434;13.238;2023-04-06T21:41:28;6.30;;;4.47;;
32329;SDS011;18807;52.434;13.238;2023-04-06T21:49:03;7.25;;;4.63;;
32329;SDS011;18807;52.434;13.238;2023-04-06T21:56:38;7.10;;;4.90;;
32329;SDS011;18807;52.434;13.238;2023-04-06T22:04:12;8.85;;;4.80;;
32329;SDS011;18807;52.434;13.238;2023-04-06T22:11:48;10.10;;;4.35;;
32329;SDS011;18807;52.434;13.238;2023-04-06T22:19:22;8.65;;;4.72;;
32329;SDS011;18807;52.434;13.238;2023-04-06T22:26:57;6.87;;;4.20;;
32329;SDS011;18807;52.434;13.238;2023-04-06T22:34:31;6.43;;;4.35;;
32329;SDS011;18807;52.434;13.238;2023-04-06T22:42:06;8.00;;;4.73;;
32329;SDS011;18807;52.434;13.238;2023-04-06T22:49:40;9.15;;;5.18;;
32329;SDS011;18807;52.434;13.238;2023-04-06T22:57:16;6.57;;;4.33;;
32329;SDS011;18807;52.434;13.238;2023-04-06T23:04:50;7.15;;;4.20;;
32329;SDS011;18807;52.434;13.238;2023-04-06T23:12:25;5.63;;;4.10;;
32329;SDS011;18807;52.434;13.238;2023-04-06T23:19:59;7.55;;;4.40;;
32329;SDS011;18807;52.434;13.238;2023-04-06T23:27:35;7.93;;;4.80;;
32329;SDS011;18807;52.434;13.238;2023-04-06T23:35:09;7.55;;;4.97;;
32329;SDS011;18807;52.434;13.238;2023-04-06T23:42:45;7.43;;;4.05;;
32329;SDS011;18807;52.434;13.238;2023-04-06T23:50:19;6.10;;;4.03;;
32329;SDS011;18807;52.434;13.238;2023-04-06T23:57:54;9.93;;;4.28;;
